Cànoves i Samalús





Hora UTC 14:40
Temperatura 23.6 ºC
Humitat 47.7 %
Pressió 1016.4 hPa
Pluja 0.0 mm
Velocitat vent 12.2 km/h
Direcció vent SSE
Radiació solar 545.7 W/m²

Dades diàries 2021-09-19



Hora UTC (hivern +1h; estiu +2h)
Temperatura (ºC) Humitat (%) Pressió (hPa) Velocitat vent (km/h) Precipitació (mm) Radiació solar (W/m²)
Hora UTC Aire Humitat Pressió Vel. Dir. Vel. Max Dir. Intent. màx 5 min. Rad. Sol.
00:05 17.0 98.8 1014.7 1.0 S 1.0 S 0.0 0.1
00:10 16.9 98.8 1014.7 0.2 S 2.1 S 0.0 0.1
00:15 17.0 98.9 1014.8 0.0 NNE 0.0 S 0.0 0.1
00:20 17.0 99.0 1014.8 0.3 N 2.1 N 0.0 0.1
00:25 17.0 99.0 1014.8 1.6 SE 5.3 SE 0.0 0.1
00:30 17.0 98.9 1014.9 1.8 ESE 5.3 SE 0.0 0.1
00:35 16.8 98.8 1014.9 0.9 SW 2.8 SW 0.0 0.1
00:40 16.8 98.8 1014.9 1.5 S 3.5 SSE 0.0 0.1
00:45 16.8 98.9 1014.9 3.2 SSE 5.3 SSE 0.0 0.1
00:50 16.8 99.0 1014.9 0.2 SSE 2.8 SE 0.0 0.1
00:55 16.7 98.9 1014.8 1.3 NW 2.8 NW 0.0 0.1
01:00 16.7 99.0 1014.9 0.5 SW 2.5 S 0.0 0.1
01:05 16.7 99.1 1014.9 4.3 SSE 8.5 SE 0.0 0.1
01:10 16.6 98.8 1015.0 5.3 SE 9.2 SSE 0.0 0.1
01:15 16.4 98.8 1015.0 2.8 SSE 4.6 SE 0.0 0.1
01:20 16.4 98.9 1014.9 1.1 WSW 3.5 SW 0.0 0.1
01:25 16.4 98.9 1014.8 0.1 W 1.4 W 0.0 0.1
01:30 16.3 98.9 1014.9 1.7 S 4.6 S 0.0 0.1
01:35 16.3 98.9 1014.9 3.4 SSE 5.3 SSE 0.0 0.1
01:40 16.2 98.7 1014.9 0.3 S 2.1 SE 0.0 0.1
01:45 16.1 98.7 1014.9 1.4 WSW 2.8 W 0.0 0.1
01:50 16.0 98.7 1014.9 0.4 SSW 1.4 SSW 0.0 0.1
01:55 16.0 98.7 1014.9 0.0 NNE 0.0 SSW 0.0 0.1
02:00 16.0 98.7 1015.0 1.7 NW 2.8 NW 0.0 0.1
02:05 16.0 98.9 1015.0 2.7 NW 3.5 NW 0.0 0.1
02:10 16.0 98.9 1015.0 1.9 WNW 2.5 NW 0.0 0.1
02:15 16.0 98.9 1015.0 0.2 WSW 2.1 W 0.0 0.1
02:20 16.0 99.1 1015.0 0.0 NNE 0.0 WSW 0.0 0.1
02:25 16.1 99.1 1015.0 0.9 W 2.8 WNW 0.0 0.1
02:30 16.2 99.3 1015.1 4.0 WNW 6.0 WNW 0.0 0.1
02:35 16.4 99.6 1015.1 3.6 WNW 5.3 WSW 0.0 0.1
02:40 16.5 99.5 1015.1 4.3 W 6.4 WNW 0.0 0.1
02:45 16.7 99.5 1015.1 3.6 WNW 5.6 WNW 0.0 0.1
02:50 16.7 99.3 1015.1 2.0 W 5.3 WNW 0.0 0.1
02:55 16.6 99.1 1015.0 2.4 SW 4.6 WSW 0.0 0.1
03:00 16.5 99.1 1015.0 2.6 WSW 5.3 WNW 0.0 0.1
03:05 16.6 99.2 1015.0 0.6 W 3.9 WNW 0.0 0.1
03:10 16.6 99.2 1015.1 1.3 SSE 5.6 SSE 0.0 0.1
03:15 16.7 99.2 1015.1 2.0 SSE 3.9 SSW 0.0 0.1
03:20 16.7 99.1 1015.2 2.3 SSE 6.0 SSE 0.0 0.1
03:25 16.6 98.9 1015.2 1.7 SSW 4.9 WNW 0.0 0.1
03:30 16.3 98.2 1015.2 2.9 NNW 5.3 NNE 0.0 0.1
03:35 15.9 97.5 1015.2 0.8 NNW 3.5 NW 0.0 0.1
03:40 15.7 97.5 1015.3 2.4 WNW 3.9 WNW 0.0 0.1
03:45 15.6 98.0 1015.3 0.6 N 2.5 NNE 0.0 0.1
03:50 15.5 97.9 1015.3 0.9 N 3.9 N 0.0 0.1
03:55 15.1 96.7 1015.2 3.8 N 7.4 0.0 0.1
04:00 14.7 96.0 1015.1 3.1 NNW 5.6 N 0.0 0.1
04:05 14.5 95.5 1015.1 2.0 NNW 6.4 NNW 0.0 0.1
04:10 14.1 95.0 1015.2 0.6 NNE 4.2 N 0.0 0.1
04:15 14.0 95.6 1015.1 4.2 N 6.4 N 0.0 0.1
04:20 13.9 95.4 1015.2 2.2 NNW 8.1 N 0.0 0.1
04:25 13.7 94.4 1015.2 1.9 NW 6.4 NW 0.0 0.1
04:30 13.7 94.5 1015.1 2.8 NW 8.1 NNE 0.0 0.1
04:35 13.6 95.0 1015.2 2.2 WNW 5.3 WSW 0.0 0.1
04:40 13.7 96.7 1015.2 3.9 NW 6.4 NW 0.0 0.1
04:45 13.7 96.8 1015.3 3.9 NNW 6.4 NNW 0.0 0.1
04:50 13.6 96.8 1015.3 3.9 NNW 5.3 NNW 0.0 0.1
04:55 13.6 97.2 1015.4 2.6 NNW 4.2 NNW 0.0 0.1
05:00 13.4 96.9 1015.5 2.4 S 4.9 NW 0.0 0.1
05:05 13.2 96.7 1015.6 2.7 W 4.2 W 0.0 0.1
05:10 13.1 97.3 1015.7 2.8 WSW 5.3 WSW 0.0 0.1
05:15 13.0 97.5 1015.7 1.3 N 4.9 NNW 0.0 0.1
05:20 13.0 97.8 1015.8 2.5 NNW 5.6 N 0.0 0.4
05:25 13.0 97.7 1015.8 0.4 WNW 1.8 NW 0.0 1.2
05:30 12.8 97.5 1015.8 1.4 ESE 2.8 SE 0.0 2.4
05:35 12.6 97.4 1015.9 1.4 SW 3.5 SSW 0.0 4.0
05:40 12.6 98.0 1016.0 2.6 WSW 4.2 NW 0.0 6.3
05:45 12.6 98.1 1016.0 3.7 NW 6.0 WNW 0.0 8.2
05:50 12.7 98.4 1016.0 3.9 NW 7.4 WNW 0.0 10.9
05:55 12.7 98.2 1016.1 1.9 N 5.3 NNW 0.0 14.5
06:00 12.6 97.9 1016.2 0.0 NNE 0.0 NE 0.0 18.5
06:05 12.6 98.1 1016.2 2.1 NNW 3.9 NW 0.0 21.4
06:10 12.7 98.5 1016.3 0.7 NNW 2.8 N 0.0 23.9
06:15 12.6 98.1 1016.4 1.8 NE 3.2 NNE 0.0 26.1
06:20 12.5 98.0 1016.5 2.5 ENE 6.7 NE 0.0 28.3
06:25 12.5 98.1 1016.5 2.6 NNW 8.5 NNW 0.0 37.6
06:30 12.6 97.4 1016.5 4.9 NNW 10.2 WNW 0.0 33.6
06:35 12.9 97.5 1016.5 2.3 ENE 4.9 NE 0.0 33.4
06:40 13.1 97.4 1016.5 3.2 ESE 6.7 SE 0.0 34.9
06:45 13.3 96.9 1016.5 1.8 SE 6.7 SE 0.0 36.6
06:50 13.3 96.2 1016.5 3.8 SE 5.6 SE 0.0 38.1
06:55 13.3 95.1 1016.5 3.0 SSE 4.9 SSE 0.0 39.7
07:00 13.5 94.8 1016.5 3.1 SSE 6.7 SE 0.0 41.0
07:05 13.6 94.4 1016.5 4.3 SSE 6.7 S 0.0 42.3
07:10 13.8 94.0 1016.6 3.4 SSE 5.6 S 0.0 43.6
07:15 13.8 92.8 1016.6 1.3 SSE 3.5 SSW 0.0 44.5
07:20 14.0 92.3 1016.6 1.8 S 2.8 SSW 0.0 45.3
07:25 14.3 92.4 1016.8 4.7 SE 6.7 SE 0.0 47.5
07:30 14.4 90.9 1016.9 2.9 ESE 5.3 SE 0.0 102.5
07:35 14.6 90.3 1017.0 2.8 SE 4.9 SE 0.0 311.1
07:40 14.9 90.4 1017.1 1.5 ESE 2.8 SE 0.0 386.2
07:45 15.2 89.2 1017.0 4.3 ESE 6.7 SE 0.0 400.7
07:50 15.5 88.0 1017.0 4.5 SE 7.1 SE 0.0 415.5
07:55 15.5 87.0 1017.1 3.6 SE 6.4 SE 0.0 429.9
08:00 15.6 86.6 1017.1 1.5 SE 5.3 E 0.0 443.1
08:05 16.1 87.2 1017.2 3.8 ESE 6.0 SSE 0.0 454.6
08:10 16.4 82.5 1017.3 5.9 SSE 9.2 SSE 0.0 465.8
08:15 16.5 79.4 1017.3 4.7 S 8.1 SSE 0.0 458.0
08:20 16.8 78.0 1017.4 2.6 WSW 7.4 WSW 0.0 471.9
08:25 17.0 76.3 1017.4 4.5 SSW 7.4 SW 0.0 498.7
08:30 17.0 77.0 1017.5 3.7 SW 7.1 W 0.0 509.3
08:35 17.3 76.3 1017.5 4.0 WSW 8.5 W 0.0 518.8
08:40 17.7 74.8 1017.5 2.9 SSE 7.4 ESE 0.0 528.3
08:45 18.2 74.1 1017.5 3.3 SSW 7.1 SSW 0.0 536.9
08:50 18.3 73.2 1017.6 4.8 S 8.8 S 0.0 543.1
08:55 18.6 72.6 1017.6 1.8 SE 4.9 SE 0.0 555.0
09:00 18.8 71.9 1017.7 2.4 SW 6.4 SW 0.0 567.3
09:05 18.9 70.4 1017.6 2.3 NNW 4.6 WNW 0.0 579.6
09:10 19.3 70.4 1017.6 1.0 SE 4.9 S 0.0 591.9
09:15 19.5 66.6 1017.6 5.7 SW 9.5 SSW 0.0 603.5
09:20 19.8 65.8 1017.7 3.5 SW 6.4 S 0.0 614.0
09:25 20.0 63.4 1017.8 5.3 SSW 10.6 SW 0.0 625.0
09:30 19.9 63.3 1017.8 4.5 SSW 10.2 SSW 0.0 636.2
09:35 20.0 63.2 1017.8 5.2 S 10.6 SSE 0.0 646.2
09:40 20.2 64.5 1017.7 4.6 S 12.4 S 0.0 654.7
09:45 20.7 62.8 1017.7 4.5 S 11.6 S 0.0 663.8
09:50 20.8 62.5 1017.7 8.4 SSE 15.5 SE 0.0 673.3
09:55 20.9 61.2 1017.7 6.3 SE 12.0 SE 0.0 682.1
10:00 20.9 59.5 1017.7 7.3 SSE 12.0 SE 0.0 690.4
10:05 20.7 59.5 1017.7 6.6 SE 14.8 SSE 0.0 698.2
10:10 20.9 58.4 1017.8 7.6 SE 13.1 S 0.0 706.3
10:15 20.9 56.4 1017.7 4.2 SSE 9.5 SE 0.0 713.7
10:20 21.1 56.6 1017.6 8.1 SE 17.6 SSE 0.0 721.6
10:25 21.3 53.7 1017.6 7.3 SSE 13.8 S 0.0 727.7
10:30 21.3 52.9 1017.6 5.4 S 13.8 SE 0.0 733.7
10:35 21.5 52.8 1017.6 7.9 SE 13.8 ESE 0.0 740.0
10:40 21.7 51.5 1017.6 7.4 SE 13.8 SE 0.0 744.5
10:45 21.8 50.0 1017.6 6.4 S 10.6 SE 0.0 750.5
10:50 21.8 51.2 1017.5 5.4 S 11.3 SW 0.0 750.0
10:55 21.8 50.7 1017.5 4.6 SW 12.4 SW 0.0 752.2
11:00 21.9 51.0 1017.4 7.9 SE 14.1 SSE 0.0 758.7
11:05 22.1 49.7 1017.4 4.7 SE 9.5 ESE 0.0 766.4
11:10 22.5 50.4 1017.4 7.1 SE 15.5 ESE 0.0 768.8
11:15 22.5 50.8 1017.4 9.8 SE 16.2 SE 0.0 770.5
11:20 22.5 50.5 1017.4 4.6 SSE 10.6 S 0.0 769.0
11:25 22.4 49.3 1017.4 6.3 S 14.8 S 0.0 772.4
11:30 22.5 51.1 1017.3 10.0 SE 18.4 SE 0.0 772.4
11:35 22.3 50.7 1017.4 7.4 SSE 14.5 S 0.0 772.8
11:40 22.8 50.2 1017.4 9.2 S 18.0 SE 0.0 774.1
11:45 22.6 51.5 1017.4 8.0 SSE 14.1 SSW 0.0 775.7
11:50 22.8 50.6 1017.4 6.6 S 11.6 SSE 0.0 775.6
11:55 22.9 50.7 1017.3 6.1 S 13.1 SSE 0.0 773.9
12:00 23.0 49.6 1017.3 7.9 SSE 16.2 SSE 0.0 771.8
12:05 22.8 49.9 1017.3 9.2 SSE 19.4 SSE 0.0 772.2
12:10 23.0 50.8 1017.3 5.2 S 11.3 SSE 0.0 772.3
12:15 23.2 49.8 1017.3 7.3 SW 18.0 SW 0.0 769.2
12:20 22.8 50.5 1017.3 6.7 S 12.0 SW 0.0 765.8
12:25 23.4 49.7 1017.2 9.3 SSE 15.9 SSE 0.0 760.8
12:30 23.4 48.6 1017.2 6.8 SSE 15.9 SE 0.0 754.1
12:35 23.5 48.1 1017.2 8.7 SSW 19.4 SE 0.0 751.9
12:40 23.4 48.0 1017.2 6.4 SSW 17.3 SE 0.0 749.1
12:45 23.5 47.4 1017.1 8.1 SW 16.9 SSW 0.0 742.6
12:50 23.7 47.2 1017.1 6.4 S 16.2 SSE 0.0 736.7
12:55 23.1 45.8 1017.1 6.2 S 15.2 S 0.0 731.8
13:00 23.4 46.2 1017.0 5.0 SSE 16.6 S 0.0 654.9
13:05 23.6 46.3 1017.0 9.4 SSE 20.5 SSE 0.0 718.1
13:10 23.7 45.1 1016.9 10.3 SSE 21.5 SSE 0.0 708.6
13:15 23.6 45.6 1016.9 5.3 SSW 12.4 W 0.0 701.3
13:20 24.1 44.7 1016.9 6.7 S 19.8 S 0.0 693.5
13:25 23.7 45.1 1016.8 7.6 S 18.0 SSE 0.0 688.8
13:30 23.9 44.4 1016.8 8.5 SSE 22.6 SSE 0.0 691.3
13:35 23.6 45.0 1016.7 10.1 SSE 16.9 SE 0.0 678.6
13:40 23.6 44.9 1016.7 10.9 SSE 20.1 S 0.0 662.9
13:45 23.9 44.9 1016.6 8.4 SSE 17.6 SE 0.0 654.6
13:50 24.2 44.7 1016.6 10.2 SSE 21.5 SSE 0.0 648.7
13:55 24.1 43.4 1016.6 9.9 S 18.7 SSE 0.0 638.0
14:00 23.8 43.8 1016.6 10.5 S 19.4 SSW 0.0 626.6
14:05 24.0 44.2 1016.6 5.3 S 11.6 SSE 0.0 621.9
14:10 24.6 44.1 1016.5 5.8 SSW 14.5 SE 0.0 614.4
14:15 24.3 43.8 1016.5 11.0 S 22.2 S 0.0 600.4
14:20 24.2 45.4 1016.5 13.4 SE 22.2 SSE 0.0 589.6
14:25 23.8 46.2 1016.4 11.6 S 21.9 SE 0.0 579.4
14:30 23.7 46.9 1016.5 12.3 S 22.6 S 0.0 573.9
14:35 23.8 47.7 1016.4 13.0 SSE 24.3 SE 0.0 538.0
14:40 23.6 47.7 1016.4 12.2 SSE 20.1 SE 0.0 545.7
Màxima 24.8 99.6 1017.8 13.4 SE 24.3 SE 0.0 775.7
Mínima 12.5 43.4 1014.7
Total 0.0